Time;durP1;ratioP1;P1;durP2;ratioP2;P2;SDS_P1;SDS_P2;PMS_P1;PMS_P2;Temp;Humidity;BMP_temperature;BMP_pressure;BME280_temperature;BME280_humidity;BME280_pressure;Samples;Min_cycle;Max_cycle;Signal;HPM_P1;HPM_P2
2022/01/29 00:02:16;;;;;;;12.55;4.15;;;;;;;-1.54;80.09;95412.31;5011062;28;20041;-61
2022/01/29 00:04:43;;;;;;;10.40;4.15;;;;;;;-1.57;80.31;95415.59;5012697;28;20044;-61
2022/01/29 00:07:09;;;;;;;8.27;4.10;;;;;;;-1.59;79.83;95415.09;5010921;28;20056;-61
2022/01/29 00:09:39;;;;;;;9.33;4.53;;;;;;;-1.59;80.03;95417.78;5021563;28;20037;-61
2022/01/29 00:12:07;;;;;;;10.95;4.82;;;;;;;-1.63;80.22;95414.88;5031404;28;20053;-61
2022/01/29 00:14:33;;;;;;;8.73;4.40;;;;;;;-1.64;80.19;95408.72;5030377;28;20039;-61
2022/01/29 00:17:00;;;;;;;9.30;4.38;;;;;;;-1.66;80.02;95400.13;5029828;28;20057;-60
2022/01/29 00:19:27;;;;;;;15.40;6.20;;;;;;;-1.66;79.79;95396.66;5031482;28;20474;-61
2022/01/29 00:21:54;;;;;;;12.43;5.80;;;;;;;-1.67;80.02;95393.19;5031553;28;20048;-59
2022/01/29 00:24:21;;;;;;;30.10;8.77;;;;;;;-1.70;79.92;95395.66;5031636;28;20492;-61
2022/01/29 00:26:48;;;;;;;22.95;7.28;;;;;;;-1.71;80.12;95394.06;5030856;28;20045;-61
2022/01/29 00:29:19;;;;;;;24.95;7.35;;;;;;;-1.83;80.28;95391.91;5031421;28;20045;-62
2022/01/29 00:31:46;;;;;;;24.65;7.30;;;;;;;-1.86;80.42;95392.50;5031836;28;20038;-61
2022/01/29 00:34:13;;;;;;;19.60;5.60;;;;;;;-1.86;80.58;95384.41;5030200;28;20052;-61
2022/01/29 00:36:40;;;;;;;12.15;4.50;;;;;;;-1.85;80.02;95386.81;5031410;28;20056;-61
2022/01/29 00:39:07;;;;;;;12.35;4.63;;;;;;;-1.87;79.91;95383.63;5031236;28;20117;-60
2022/01/29 00:41:34;;;;;;;7.43;3.58;;;;;;;-1.89;79.89;95371.56;5030048;28;20110;-61
2022/01/29 00:44:00;;;;;;;8.68;3.90;;;;;;;-1.87;79.70;95370.19;5031075;28;20045;-61
2022/01/29 00:46:28;;;;;;;7.13;3.40;;;;;;;-1.93;79.37;95363.31;5031044;28;20114;-61
2022/01/29 00:48:55;;;;;;;9.07;3.95;;;;;;;-1.98;80.59;95362.59;5029868;28;20042;-60
2022/01/29 00:51:22;;;;;;;8.05;3.45;;;;;;;-1.97;79.87;95356.94;5031015;28;20045;-61
2022/01/29 00:53:49;;;;;;;14.27;5.22;;;;;;;-2.04;80.54;95361.91;5008692;28;20052;-61
2022/01/29 00:56:16;;;;;;;11.02;4.75;;;;;;;-2.16;80.93;95351.63;5010950;28;20045;-61
2022/01/29 00:58:43;;;;;;;11.33;4.77;;;;;;;-2.21;81.23;95352.56;5010854;28;20041;-62
2022/01/29 01:01:10;;;;;;;10.02;4.53;;;;;;;-2.09;81.09;95343.19;5010693;28;20438;-61
2022/01/29 01:03:37;;;;;;;10.20;4.85;;;;;;;-2.06;81.02;95343.38;5026259;28;20149;-62
2022/01/29 01:06:04;;;;;;;9.52;4.00;;;;;;;-2.02;80.75;95333.59;5007550;28;20073;-62
2022/01/29 01:08:31;;;;;;;11.45;5.10;;;;;;;-2.01;80.37;95329.84;5012720;28;20046;-62
2022/01/29 01:10:58;;;;;;;11.13;4.93;;;;;;;-2.04;80.31;95316.19;5030503;28;20058;-61
2022/01/29 01:13:25;;;;;;;11.63;4.95;;;;;;;-2.01;80.15;95324.44;5029415;28;20050;-62
2022/01/29 01:15:51;;;;;;;46.45;11.70;;;;;;;-2.08;80.59;95321.34;5030525;28;20044;-61
2022/01/29 01:18:18;;;;;;;30.38;8.45;;;;;;;-2.07;80.23;95309.50;5029739;28;20119;-62
2022/01/29 01:20:45;;;;;;;24.38;7.38;;;;;;;-2.07;79.95;95319.47;5030596;28;20080;-61
2022/01/29 01:23:12;;;;;;;18.23;6.93;;;;;;;-2.09;80.29;95310.91;5030194;28;20041;-61
2022/01/29 01:25:39;;;;;;;17.13;5.85;;;;;;;-2.14;79.92;95302.94;5030485;28;20038;-61
2022/01/29 01:28:05;;;;;;;13.63;5.10;;;;;;;-2.15;80.31;95301.34;5028993;28;20063;-61
2022/01/29 01:30:33;;;;;;;11.70;4.40;;;;;;;-2.13;80.34;95304.53;5030204;28;20533;-61
2022/01/29 01:33:02;;;;;;;12.77;5.18;;;;;;;-2.17;80.47;95296.28;5012717;28;20041;-61
2022/01/29 01:35:36;;;;;;;13.17;5.20;;;;;;;-2.15;80.23;95294.09;5030253;28;20060;-61
2022/01/29 01:38:15;;;;;;;11.80;4.68;;;;;;;-2.15;80.79;95294.09;5030079;28;20041;-60
2022/01/29 01:40:46;;;;;;;12.25;4.72;;;;;;;-2.14;80.64;95297.56;5030114;28;20041;-62
2022/01/29 01:43:13;;;;;;;11.55;4.60;;;;;;;-2.22;80.33;95291.78;5029812;28;20049;-61
2022/01/29 01:45:39;;;;;;;9.68;4.35;;;;;;;-2.21;80.32;95295.28;5030045;28;20076;-61
2022/01/29 01:48:07;;;;;;;10.83;4.80;;;;;;;-2.28;80.44;95290.28;5029912;28;20439;-61
2022/01/29 01:50:35;;;;;;;14.35;5.75;;;;;;;-2.32;80.44;95286.59;5029815;28;20045;-61
2022/01/29 01:53:03;;;;;;;14.15;6.40;;;;;;;-2.32;80.57;95291.19;5029794;28;20053;-61
2022/01/29 01:55:31;;;;;;;16.85;6.95;;;;;;;-2.39;80.79;95286.22;5030073;28;20052;-61
2022/01/29 01:57:58;;;;;;;17.13;7.85;;;;;;;-2.31;80.53;95290.91;5029754;28;20067;-60
2022/01/29 02:00:26;;;;;;;18.50;7.93;;;;;;;-2.22;80.54;95291.00;5029749;28;20039;-61
2022/01/29 02:02:53;;;;;;;17.42;7.07;;;;;;;-2.20;80.23;95288.78;5029894;28;20044;-61
2022/01/29 02:05:20;;;;;;;17.40;7.32;;;;;;;-2.26;80.64;95280.03;5028977;28;20843;-61
2022/01/29 02:07:47;;;;;;;16.80;7.68;;;;;;;-2.35;81.35;95286.44;5028098;28;20041;-62
2022/01/29 02:10:16;;;;;;;14.77;6.95;;;;;;;-2.23;81.23;95276.75;5013620;28;20041;-61
2022/01/29 02:13:02;;;;;;;14.47;6.97;;;;;;;-2.10;80.78;95277.81;5009835;28;20053;-62
2022/01/29 02:15:30;;;;;;;16.95;7.28;;;;;;;-2.17;81.17;95272.06;5008611;28;20407;-62
2022/01/29 02:17:57;;;;;;;16.63;6.43;;;;;;;-2.09;80.95;95257.13;5009548;28;20038;-61
2022/01/29 02:20:27;;;;;;;16.63;8.90;;;;;;;-2.12;81.21;95257.72;5009951;28;20041;-62
2022/01/29 02:22:54;;;;;;;18.00;9.65;;;;;;;-2.01;81.09;95253.72;5009471;28;20095;-57
2022/01/29 02:25:43;;;;;;;18.87;9.00;;;;;;;-1.98;80.80;95252.31;5010115;28;20399;-61
2022/01/29 02:28:16;;;;;;;19.25;10.32;;;;;;;-2.28;82.06;95249.16;5009331;28;20057;-61
2022/01/29 02:30:47;;;;;;;14.82;8.00;;;;;;;-2.10;81.76;95248.25;5009298;28;20044;-62
2022/01/29 02:33:16;;;;;;;12.13;5.70;;;;;;;-2.04;81.57;95238.97;5009383;28;20403;-61
2022/01/29 02:35:47;;;;;;;10.85;5.80;;;;;;;-1.96;81.84;95244.72;5009690;28;20095;-62
2022/01/29 02:38:18;;;;;;;12.00;5.50;;;;;;;-1.86;81.46;95245.28;5007965;28;20080;-61
2022/01/29 02:40:54;;;;;;;22.25;8.07;;;;;;;-1.79;81.50;95238.69;5009325;28;20253;-62
2022/01/29 02:43:30;;;;;;;21.38;8.95;;;;;;;-1.74;81.13;95236.69;5008784;28;20951;-61
2022/01/29 02:46:04;;;;;;;17.30;7.25;;;;;;;-1.66;80.92;95230.56;5009186;28;20038;-61
2022/01/29 02:48:32;;;;;;;12.93;6.43;;;;;;;-2.07;82.49;95219.97;5008885;28;20444;-61
2022/01/29 02:50:58;;;;;;;11.67;5.60;;;;;;;-1.81;81.97;95225.56;5008639;28;20049;-61
2022/01/29 02:53:26;;;;;;;15.57;5.85;;;;;;;-1.89;81.95;95220.88;5009149;28;20458;-62
2022/01/29 02:55:53;;;;;;;11.48;5.22;;;;;;;-1.77;82.07;95217.66;5009211;28;20038;-61
2022/01/29 02:58:19;;;;;;;12.85;6.05;;;;;;;-1.78;81.80;95214.19;5008484;28;20866;-61
2022/01/29 03:00:46;;;;;;;13.35;5.93;;;;;;;-1.82;81.77;95219.38;5007732;28;20233;-61
2022/01/29 03:03:13;;;;;;;13.77;5.97;;;;;;;-1.88;82.26;95220.59;5008845;28;20049;-61
2022/01/29 03:05:41;;;;;;;13.13;5.40;;;;;;;-1.67;81.59;95220.09;5009072;28;20377;-62
2022/01/29 03:08:07;;;;;;;11.95;5.80;;;;;;;-1.57;81.34;95211.00;5008804;28;20479;-61
2022/01/29 03:10:34;;;;;;;12.57;6.30;;;;;;;-1.45;80.52;95209.34;5025905;28;20052;-62
2022/01/29 03:13:02;;;;;;;12.90;5.93;;;;;;;-1.51;80.33;95205.19;5026605;28;20097;-61
2022/01/29 03:15:28;;;;;;;13.10;6.07;;;;;;;-1.47;80.62;95199.97;5028194;28;20045;-62
2022/01/29 03:17:55;;;;;;;14.35;5.90;;;;;;;-1.52;80.54;95190.13;5026892;28;20056;-60
2022/01/29 03:20:22;;;;;;;13.25;6.03;;;;;;;-1.44;80.58;95189.38;5026699;28;20160;-61
2022/01/29 03:22:49;;;;;;;14.90;5.85;;;;;;;-1.36;79.99;95187.84;5018275;28;20407;-62
2022/01/29 03:25:16;;;;;;;14.60;6.38;;;;;;;-1.43;79.93;95185.63;5008934;28;20555;-61
2022/01/29 03:27:43;;;;;;;14.23;6.00;;;;;;;-1.36;80.29;95197.84;5009052;28;20044;-62
2022/01/29 03:30:10;;;;;;;51.10;20.38;;;;;;;-1.40;80.27;95192.28;5008413;28;20457;-62
2022/01/29 03:32:37;;;;;;;17.00;7.90;;;;;;;-1.42;80.38;95194.47;5008424;28;20061;-62
2022/01/29 03:35:05;;;;;;;14.77;6.45;;;;;;;-1.36;80.37;95187.84;5008399;28;20057;-61
2022/01/29 03:37:32;;;;;;;13.40;6.50;;;;;;;-1.43;80.58;95198.25;5008604;28;20053;-62
2022/01/29 03:40:02;;;;;;;14.33;6.03;;;;;;;-1.32;80.59;95196.91;5008438;28;20048;-61
2022/01/29 03:42:33;;;;;;;14.48;6.05;;;;;;;-1.32;80.38;95198.81;5008799;28;20046;-62
2022/01/29 03:45:00;;;;;;;13.05;6.10;;;;;;;-1.35;80.62;95194.81;5008274;28;20096;-61
2022/01/29 03:47:27;;;;;;;13.43;5.75;;;;;;;-1.44;81.21;95194.78;5009121;28;20042;-62
2022/01/29 03:49:53;;;;;;;12.77;5.97;;;;;;;-1.57;81.57;95198.34;5007968;28;20038;-59
2022/01/29 03:52:20;;;;;;;12.23;5.97;;;;;;;-1.53;81.64;95188.56;5007405;28;20530;-62
2022/01/29 03:54:47;;;;;;;14.85;6.35;;;;;;;-1.43;81.04;95188.31;5008365;28;20042;-62
2022/01/29 03:57:14;;;;;;;14.43;7.20;;;;;;;-1.38;80.82;95191.97;5008154;28;20054;-62
2022/01/29 03:59:40;;;;;;;15.00;6.68;;;;;;;-1.86;82.45;95185.31;5008315;28;20099;-62
2022/01/29 04:02:07;;;;;;;14.30;6.80;;;;;;;-1.63;82.16;95186.91;5006776;28;20042;-61
2022/01/29 04:04:34;;;;;;;16.27;6.77;;;;;;;-1.71;81.78;95171.50;5007982;28;20045;-62
2022/01/29 04:07:06;;;;;;;15.23;6.55;;;;;;;-1.85;82.80;95168.06;5008153;28;20042;-61
2022/01/29 04:09:33;;;;;;;14.52;6.55;;;;;;;-1.74;82.49;95163.25;5018332;28;20041;-62
2022/01/29 04:12:01;;;;;;;15.88;6.40;;;;;;;-1.69;82.18;95155.84;5027720;28;20049;-61
2022/01/29 04:14:34;;;;;;;14.57;6.03;;;;;;;-1.58;82.22;95153.69;5028072;28;20460;-62
2022/01/29 04:17:01;;;;;;;14.87;6.10;;;;;;;-1.44;81.82;95159.00;5027654;28;20050;-62
2022/01/29 04:19:27;;;;;;;14.27;6.35;;;;;;;-1.38;81.38;95160.44;5028239;28;20044;-62
2022/01/29 04:21:54;;;;;;;14.85;6.90;;;;;;;-1.38;81.84;95157.75;5026138;28;20060;-61
2022/01/29 04:24:21;;;;;;;15.00;7.43;;;;;;;-1.34;81.45;95166.81;5028221;28;20479;-61
2022/01/29 04:26:47;;;;;;;15.82;7.70;;;;;;;-1.41;81.48;95163.75;5026749;28;20064;-62
2022/01/29 04:29:14;;;;;;;13.07;6.53;;;;;;;-1.45;81.64;95165.47;5026344;28;20046;-62
2022/01/29 04:34:21;;;;;;;14.85;6.97;;;;;;;-1.42;81.13;95152.19;5011574;28;21477;-62
2022/01/29 04:36:48;;;;;;;16.35;7.40;;;;;;;-1.50;81.98;95144.06;5011020;28;20045;-62
2022/01/29 04:39:14;;;;;;;16.02;7.45;;;;;;;-1.48;81.99;95147.25;5011579;28;20042;-62
2022/01/29 04:41:41;;;;;;;12.00;6.53;;;;;;;-1.52;82.37;95152.44;5011607;28;20050;-62
2022/01/29 04:44:08;;;;;;;14.35;6.20;;;;;;;-1.44;82.08;95146.31;5010829;28;20054;-62
2022/01/29 04:46:35;;;;;;;14.77;6.10;;;;;;;-1.44;81.89;95149.00;5011436;28;20071;-62
2022/01/29 04:49:02;;;;;;;14.25;6.00;;;;;;;-1.42;82.05;95146.81;5009883;28;20510;-61
2022/01/29 04:51:29;;;;;;;14.52;6.63;;;;;;;-1.36;81.58;95149.38;5011383;28;20056;-62
2022/01/29 04:53:55;;;;;;;16.13;7.37;;;;;;;-1.42;81.78;95146.81;5009555;28;20037;-61
2022/01/29 04:56:22;;;;;;;14.63;7.85;;;;;;;-1.47;82.33;95144.25;5011580;28;20044;-62
2022/01/29 04:58:49;;;;;;;14.93;7.20;;;;;;;-1.35;81.70;95142.88;5010128;28;20034;-62
2022/01/29 05:01:16;;;;;;;13.63;6.28;;;;;;;-1.34;81.83;95142.56;5011226;28;20438;-61
2022/01/29 05:03:43;;;;;;;13.48;6.15;;;;;;;-1.32;81.75;95131.50;5011400;28;20045;-62
2022/01/29 05:06:10;;;;;;;12.03;5.07;;;;;;;-1.21;80.84;95135.47;5009638;28;20052;-62
2022/01/29 05:08:37;;;;;;;10.88;5.10;;;;;;;-1.41;81.01;95129.56;5013339;28;20038;-62
2022/01/29 05:11:05;;;;;;;10.80;5.55;;;;;;;-1.19;80.30;95135.19;5029048;28;20053;-61
2022/01/29 05:13:36;;;;;;;12.93;5.85;;;;;;;-1.12;79.93;95133.63;5029510;28;20044;-62
2022/01/29 05:27:09;;;;;;;12.02;5.25;;;;;;;-0.85;78.53;95105.66;5030435;28;20399;-62
2022/01/29 05:29:37;;;;;;;12.00;5.55;;;;;;;-0.91;78.96;95109.59;5030271;28;20052;-62
2022/01/29 05:32:11;;;;;;;11.13;5.40;;;;;;;-0.93;78.93;95111.03;5021118;28;20046;-62
2022/01/29 05:34:40;;;;;;;11.35;5.05;;;;;;;-0.97;78.94;95121.63;5008048;28;20063;-62
2022/01/29 05:37:27;;;;;;;15.70;5.07;;;;;;;-0.94;79.22;95123.72;5010247;28;20433;-62
2022/01/29 05:39:53;;;;;;;15.45;5.68;;;;;;;-1.13;79.77;95115.09;5008972;28;20414;-55
2022/01/29 05:42:20;;;;;;;19.65;6.95;;;;;;;-1.25;80.42;95121.06;5010442;28;20049;-62
2022/01/29 05:44:47;;;;;;;40.67;20.07;;;;;;;-1.16;80.28;95113.81;4992497;28;20045;-62
2022/01/29 05:47:13;;;;;;;22.58;11.80;;;;;;;-1.17;79.35;95116.81;5010299;28;20053;-61
2022/01/29 05:49:40;;;;;;;54.45;29.65;;;;;;;-1.12;79.32;95120.16;5009151;28;20137;-62
2022/01/29 05:52:07;;;;;;;13.48;6.53;;;;;;;-1.01;79.02;95131.44;5009976;28;20518;-63
2022/01/29 05:54:34;;;;;;;10.77;6.30;;;;;;;-1.02;78.73;95119.88;5010554;28;20042;-63
2022/01/29 05:57:00;;;;;;;11.17;4.63;;;;;;;-0.95;78.31;95121.31;5009700;28;20054;-62
2022/01/29 05:59:27;;;;;;;11.75;5.53;;;;;;;-0.96;78.17;95130.53;5010228;28;20052;-62
2022/01/29 06:01:54;;;;;;;10.82;5.35;;;;;;;-1.04;78.75;95130.19;5009691;28;20081;-58
2022/01/29 06:04:21;;;;;;;9.63;4.90;;;;;;;-1.06;78.50;95132.38;5010198;28;20075;-62
2022/01/29 06:06:47;;;;;;;8.07;4.55;;;;;;;-0.94;78.55;95123.72;5009764;28;20056;-62
2022/01/29 06:09:14;;;;;;;10.10;4.83;;;;;;;-0.85;78.27;95118.34;5015991;28;20056;-62
2022/01/29 06:11:41;;;;;;;10.80;4.40;;;;;;;-0.78;77.61;95124.09;5028237;28;20046;-62
2022/01/29 06:14:09;;;;;;;22.20;11.07;;;;;;;-1.02;78.87;95133.34;5029317;28;20044;-62
2022/01/29 06:16:35;;;;;;;12.57;6.35;;;;;;;-1.18;79.86;95134.88;5029492;28;20037;-62
2022/01/29 06:19:02;;;;;;;12.20;5.45;;;;;;;-0.96;79.13;95139.41;5027677;28;20042;-62
2022/01/29 06:21:29;;;;;;;9.60;4.80;;;;;;;-0.84;78.65;95141.50;5029945;28;20052;-62
2022/01/29 06:23:57;;;;;;;12.43;5.70;;;;;;;-1.05;79.66;95143.94;5028993;28;20045;-62
2022/01/29 06:26:25;;;;;;;13.75;5.68;;;;;;;-0.91;79.33;95152.72;5029874;28;20403;-62
2022/01/29 06:28:51;;;;;;;13.15;5.80;;;;;;;-0.89;79.27;95152.41;5029377;28;20044;-62
2022/01/29 06:31:18;;;;;;;12.63;6.15;;;;;;;-1.06;79.98;95163.94;5027812;28;20050;-62
2022/01/29 06:33:46;;;;;;;13.93;6.20;;;;;;;-1.22;80.53;95163.53;5028069;28;20047;-62
2022/01/29 06:36:13;;;;;;;13.50;6.38;;;;;;;-1.01;80.18;95156.50;5027928;28;20037;-62
2022/01/29 06:38:39;;;;;;;14.15;6.22;;;;;;;-0.84;79.71;95152.28;5029368;28;20444;-63
2022/01/29 06:41:06;;;;;;;13.00;6.13;;;;;;;-0.78;79.55;95144.84;5029145;28;20057;-61
2022/01/29 06:43:33;;;;;;;14.32;7.00;;;;;;;-0.69;79.08;95149.13;5029472;28;20053;-62
2022/01/29 06:46:00;;;;;;;14.63;6.67;;;;;;;-0.83;79.70;95138.47;5027295;28;20064;-62
2022/01/29 06:48:27;;;;;;;15.85;6.95;;;;;;;-0.72;79.25;95141.69;5029349;28;20041;-62
2022/01/29 06:50:54;;;;;;;13.52;6.63;;;;;;;-0.70;79.07;95141.38;5028590;28;20491;-59
2022/01/29 06:53:21;;;;;;;17.17;8.30;;;;;;;-0.66;78.83;95124.25;5014265;28;20054;-62
2022/01/29 06:55:48;;;;;;;24.23;12.13;;;;;;;-0.58;78.63;95128.09;5009242;28;20487;-63
2022/01/29 06:58:14;;;;;;;25.33;11.37;;;;;;;-0.73;79.02;95123.91;5009131;28;20041;-63
2022/01/29 07:01:02;;;;;;;20.70;9.52;;;;;;;-0.54;78.50;95125.53;5002516;28;20048;-61
2022/01/29 07:03:29;;;;;;;20.50;9.40;;;;;;;-0.54;78.75;95120.13;5009301;28;20095;-62
2022/01/29 07:05:56;;;;;;;19.67;9.15;;;;;;;-0.49;78.47;95118.09;5008666;28;20145;-61
2022/01/29 07:08:22;;;;;;;20.95;9.60;;;;;;;-0.46;78.29;95119.38;5009805;28;20042;-62
2022/01/29 07:10:50;;;;;;;17.20;7.70;;;;;;;-0.58;78.80;95114.59;5028566;28;20038;-62
2022/01/29 07:13:20;;;;;;;15.90;6.70;;;;;;;-0.46;78.21;95116.69;5027844;28;20056;-62
2022/01/29 07:15:46;;;;;;;31.90;11.20;;;;;;;-0.53;77.91;95130.63;5027837;28;20053;-62
2022/01/29 07:18:13;;;;;;;19.92;7.30;;;;;;;-0.77;79.32;95132.94;5027254;28;20063;-62
2022/01/29 07:20:40;;;;;;;17.13;8.52;;;;;;;-0.62;79.13;95127.91;5028797;28;20037;-62
2022/01/29 07:23:07;;;;;;;17.63;8.23;;;;;;;-0.45;78.59;95121.75;5026581;28;20042;-62
2022/01/29 07:25:34;;;;;;;18.75;8.85;;;;;;;-0.25;77.84;95135.72;5011893;28;20046;-62
2022/01/29 07:28:01;;;;;;;20.02;9.90;;;;;;;-0.23;77.50;95145.09;5008189;28;20046;-62
2022/01/29 07:30:28;;;;;;;23.23;11.00;;;;;;;-0.42;78.03;95150.78;5008969;28;20060;-61
2022/01/29 07:32:55;;;;;;;20.55;10.80;;;;;;;-0.30;78.22;95155.56;5008164;28;20041;-60
2022/01/29 07:35:21;;;;;;;21.20;9.73;;;;;;;-0.17;77.48;95166.53;5008953;28;20060;-62
2022/01/29 07:37:52;;;;;;;19.40;8.30;;;;;;;-0.11;77.43;95182.25;5007330;28;20050;-62
2022/01/29 07:40:18;;;;;;;19.13;8.73;;;;;;;-0.28;77.97;95184.91;5008279;28;20495;-61
2022/01/29 07:42:45;;;;;;;17.92;8.20;;;;;;;-0.23;78.11;95176.69;5007140;28;20141;-61
2022/01/29 07:45:12;;;;;;;18.70;8.52;;;;;;;0.03;77.11;95163.19;5008024;28;20042;-61
2022/01/29 07:47:39;;;;;;;46.03;20.10;;;;;;;0.13;76.89;95148.59;5008638;28;20050;-62
2022/01/29 07:50:06;;;;;;;41.97;18.70;;;;;;;0.02;77.42;95136.53;5007411;28;20072;-62
2022/01/29 07:52:33;;;;;;;28.63;14.27;;;;;;;0.02;77.44;95134.66;5006610;28;20049;-62
2022/01/29 07:55:04;;;;;;;32.13;14.13;;;;;;;-0.06;77.21;95136.22;5006051;28;20050;-62
2022/01/29 07:57:31;;;;;;;20.08;9.70;;;;;;;-0.24;77.98;95143.50;5008308;28;20060;-61
2022/01/29 07:59:58;;;;;;;25.47;11.23;;;;;;;-0.59;78.90;95139.19;5001215;28;20100;-61
2022/01/29 08:02:25;;;;;;;29.90;12.65;;;;;;;-0.63;79.67;95147.88;5003540;28;20050;-62
2022/01/29 08:04:52;;;;;;;27.90;12.38;;;;;;;-0.36;78.85;95137.13;4996052;28;20318;-61
2022/01/29 08:07:18;;;;;;;33.55;16.27;;;;;;;-0.34;79.11;95138.44;5010463;28;20056;-62
2022/01/29 08:09:45;;;;;;;20.05;9.35;;;;;;;-0.13;78.25;95149.38;5023603;28;20049;-63
2022/01/29 08:12:12;;;;;;;25.20;11.87;;;;;;;0.05;77.30;95150.19;5031508;28;20053;-61
2022/01/29 08:14:39;;;;;;;24.80;11.13;;;;;;;0.19;76.88;95158.13;5031800;28;20042;-62
2022/01/29 08:17:07;;;;;;;18.02;8.25;;;;;;;0.30;76.31;95158.56;5031203;28;20318;-62
2022/01/29 08:19:34;;;;;;;19.05;8.00;;;;;;;0.44;75.92;95159.19;5031752;28;20050;-62
2022/01/29 08:22:05;;;;;;;17.10;7.20;;;;;;;0.43;75.46;95173.03;5030803;28;20126;-61
2022/01/29 08:24:32;;;;;;;16.83;7.40;;;;;;;0.59;74.91;95168.72;5031714;28;20038;-60
2022/01/29 08:26:59;;;;;;;18.58;7.45;;;;;;;0.71;74.35;95178.88;5030875;28;20042;-61
2022/01/29 08:29:26;;;;;;;17.52;9.18;;;;;;;0.89;73.23;95176.91;5030164;28;20437;-60
2022/01/29 08:31:52;;;;;;;18.73;8.63;;;;;;;1.07;73.09;95178.44;5031486;28;20486;-61
2022/01/29 08:34:20;;;;;;;17.17;9.02;;;;;;;1.31;72.46;95177.88;5029471;28;20991;-60
2022/01/29 08:36:47;;;;;;;18.07;8.97;;;;;;;1.46;71.62;95175.72;5029839;28;20052;-61
2022/01/29 08:39:13;;;;;;;20.13;10.10;;;;;;;1.60;71.74;95179.78;5031272;28;20409;-61
2022/01/29 08:41:40;;;;;;;20.13;9.73;;;;;;;1.89;70.77;95177.38;5031725;28;20070;-61
2022/01/29 08:44:07;;;;;;;19.73;9.77;;;;;;;1.89;69.95;95175.47;5029072;28;20049;-61
2022/01/29 08:46:34;;;;;;;27.73;12.00;;;;;;;1.82;69.56;95172.50;5031226;28;20048;-61
2022/01/29 08:49:01;;;;;;;24.53;11.77;;;;;;;2.12;69.07;95172.44;4999090;28;20111;-63
2022/01/29 08:51:27;;;;;;;30.52;13.23;;;;;;;2.06;68.46;95166.44;5007181;28;20071;-58
2022/01/29 08:53:54;;;;;;;39.53;18.55;;;;;;;2.42;68.71;95161.53;5000239;28;20065;-59
2022/01/29 08:56:21;;;;;;;25.55;13.45;;;;;;;3.00;66.93;95154.25;5006564;28;20049;-64
2022/01/29 08:58:48;;;;;;;24.60;11.38;;;;;;;3.42;65.22;95156.78;5006791;28;20038;-67
2022/01/29 09:01:15;;;;;;;23.60;11.00;;;;;;;4.52;62.35;95152.25;5006837;28;20088;-59
2022/01/29 09:03:42;;;;;;;21.65;11.70;;;;;;;4.74;59.39;95148.97;4995582;28;20075;-60
2022/01/29 09:06:09;;;;;;;24.92;14.63;;;;;;;4.21;59.87;95145.56;5006223;28;20052;-64
2022/01/29 09:08:36;;;;;;;19.20;11.38;;;;;;;3.70;60.80;95147.91;5009082;28;20046;-59
2022/01/29 09:11:03;;;;;;;21.45;10.68;;;;;;;4.43;60.33;95143.44;5025246;28;20365;-61
2022/01/29 09:13:30;;;;;;;24.53;10.27;;;;;;;5.47;56.74;95143.38;5026642;28;20065;-60
2022/01/29 09:15:58;;;;;;;23.50;10.10;;;;;;;5.38;56.38;95141.66;5024128;28;20053;-60
2022/01/29 09:18:25;;;;;;;22.63;10.45;;;;;;;5.56;56.19;95149.47;5006236;28;20054;-60
2022/01/29 09:20:52;;;;;;;40.78;13.68;;;;;;;5.89;55.45;95148.25;4986389;28;20532;-59
2022/01/29 09:23:19;;;;;;;36.90;12.85;;;;;;;6.39;54.05;95154.81;5017045;28;20046;-59
2022/01/29 09:25:46;;;;;;;25.97;10.13;;;;;;;6.86;53.55;95161.19;5005872;28;20044;-60
2022/01/29 09:28:13;;;;;;;25.40;9.27;;;;;;;7.33;52.09;95158.16;5011410;28;20099;-60
2022/01/29 09:30:42;;;;;;;16.38;8.30;;;;;;;7.82;49.44;95153.06;5014438;28;20060;-60
2022/01/29 09:33:10;;;;;;;24.20;8.68;;;;;;;7.39;49.00;95153.94;5011911;28;20060;-60
2022/01/29 09:35:40;;;;;;;21.98;11.13;;;;;;;5.72;53.58;95169.28;5014688;28;20042;-59
2022/01/29 09:38:08;;;;;;;28.23;10.47;;;;;;;6.45;53.62;95166.22;5014549;28;20053;-60
2022/01/29 09:40:35;;;;;;;28.02;10.10;;;;;;;6.60;51.11;95165.38;5014081;28;20461;-60
2022/01/29 09:43:06;;;;;;;18.90;8.93;;;;;;;8.67;47.54;95169.09;5012647;28;20470;-60
2022/01/29 09:45:33;;;;;;;15.13;9.77;;;;;;;6.43;51.70;95171.25;5014900;28;20506;-63
2022/01/29 09:48:03;;;;;;;17.45;10.02;;;;;;;7.06;49.70;95181.81;5013030;28;20055;-61
2022/01/29 09:50:35;;;;;;;22.40;9.80;;;;;;;8.05;49.22;95188.53;5015054;28;20049;-65
2022/01/29 09:53:04;;;;;;;14.90;8.93;;;;;;;8.53;46.68;95178.72;5014798;28;20538;-61
2022/01/29 09:55:31;;;;;;;19.35;9.15;;;;;;;5.17;51.67;95176.47;5014927;28;20041;-65
2022/01/29 09:57:58;;;;;;;20.08;8.73;;;;;;;6.35;50.57;95175.75;5012137;28;20041;-65
2022/01/29 10:00:26;;;;;;;14.10;8.20;;;;;;;7.46;48.09;95171.59;5014445;28;20060;-62
2022/01/29 10:03:11;;;;;;;16.37;7.90;;;;;;;7.38;47.41;95170.69;5012517;28;20394;-62
2022/01/29 10:05:42;;;;;;;22.52;9.07;;;;;;;6.98;48.53;95161.81;5012902;28;21197;-62
2022/01/29 10:08:10;;;;;;;20.73;8.20;;;;;;;7.31;47.84;95165.91;5011816;28;20063;-61
2022/01/29 10:10:45;;;;;;;39.10;11.15;;;;;;;6.88;48.61;95161.59;5012700;28;20076;-62
2022/01/29 10:13:24;;;;;;;17.27;9.23;;;;;;;8.58;45.72;95147.50;5014216;28;20045;-62
2022/01/29 10:16:02;;;;;;;19.40;8.10;;;;;;;9.02;42.69;95151.50;5013732;28;20041;-62
2022/01/29 10:18:31;;;;;;;11.55;6.18;;;;;;;10.80;37.50;95137.50;5012092;28;20812;-62
2022/01/29 10:21:16;;;;;;;16.98;6.20;;;;;;;10.24;37.02;95138.78;5013679;28;20041;-62
2022/01/29 10:23:45;;;;;;;16.02;7.10;;;;;;;9.26;38.68;95139.22;5011925;28;20056;-60
2022/01/29 10:26:26;;;;;;;15.98;8.57;;;;;;;7.65;43.54;95152.44;5014380;28;20060;-62
2022/01/29 10:28:54;;;;;;;10.83;5.60;;;;;;;8.60;40.85;95148.69;5013986;28;20053;-62
2022/01/29 10:31:21;;;;;;;8.20;4.78;;;;;;;12.25;34.29;95137.25;5012056;28;21674;-62
2022/01/29 10:33:48;;;;;;;10.30;4.65;;;;;;;14.04;29.41;95141.03;5014120;28;20095;-63
2022/01/29 10:36:17;;;;;;;8.65;3.83;;;;;;;12.05;31.93;95142.38;5014040;28;20063;-63
2022/01/29 10:38:48;;;;;;;5.93;3.47;;;;;;;11.54;32.89;95140.81;5013901;28;20053;-62
2022/01/29 10:41:31;;;;;;;5.87;3.50;;;;;;;9.20;34.14;95131.34;5013967;28;20045;-63
2022/01/29 10:46:43;;;;;;;7.80;3.58;;;;;;;12.11;30.75;95124.31;5012752;28;20053;-63
2022/01/29 10:49:38;;;;;;;9.43;3.75;;;;;;;12.61;31.45;95117.09;5010412;28;20056;-62
2022/01/29 10:52:08;;;;;;;11.93;5.10;;;;;;;11.52;32.50;95121.94;5012640;28;20061;-62
2022/01/29 10:54:36;;;;;;;8.37;4.40;;;;;;;11.51;32.38;95119.59;5009690;28;20059;-61
2022/01/29 10:57:16;;;;;;;7.97;3.50;;;;;;;11.09;31.92;95123.88;5008954;28;20060;-62
2022/01/29 10:59:50;;;;;;;8.73;3.70;;;;;;;10.70;32.56;95111.56;5009100;28;20049;-62
2022/01/29 11:02:19;;;;;;;18.85;3.45;;;;;;;9.07;34.75;95113.59;5014197;28;20053;-61
2022/01/29 11:04:47;;;;;;;6.95;2.92;;;;;;;9.44;34.86;95106.50;5010579;28;20511;-61
2022/01/29 11:07:19;;;;;;;5.53;2.50;;;;;;;8.88;36.14;95114.59;5010314;28;20050;-62
2022/01/29 11:09:47;;;;;;;8.52;2.60;;;;;;;9.20;35.77;95105.91;5012872;28;20042;-62
2022/01/29 11:12:20;;;;;;;5.22;2.50;;;;;;;8.50;36.91;95099.31;5009632;28;20050;-62
2022/01/29 11:14:48;;;;;;;6.85;2.25;;;;;;;8.29;37.66;95092.41;5014258;28;20820;-63
2022/01/29 11:17:18;;;;;;;6.47;2.60;;;;;;;8.29;37.48;95086.13;5014209;28;20410;-62
2022/01/29 11:19:46;;;;;;;5.70;3.17;;;;;;;8.13;38.72;95086.31;5010007;28;20038;-62
2022/01/29 11:22:18;;;;;;;4.40;1.88;;;;;;;7.86;38.71;95097.28;5012480;28;20060;-63
2022/01/29 11:24:47;;;;;;;3.40;1.80;;;;;;;8.84;37.99;95083.66;5015421;28;20046;-62
2022/01/29 11:27:29;;;;;;;5.45;2.15;;;;;;;9.32;38.41;95074.72;5014295;28;25462;-62
2022/01/29 11:30:09;;;;;;;13.57;2.60;;;;;;;9.65;37.61;95064.78;5008899;28;20045;-62
2022/01/29 11:32:47;;;;;;;4.20;1.70;;;;;;;9.18;38.01;95058.94;5009623;28;20042;-62
2022/01/29 11:35:16;;;;;;;3.35;1.70;;;;;;;9.01;37.83;95052.13;5009445;28;20060;-62
2022/01/29 11:37:43;;;;;;;4.28;2.13;;;;;;;9.36;38.16;95054.41;5009884;28;20052;-62
2022/01/29 11:40:12;;;;;;;9.10;3.92;;;;;;;10.78;35.65;95041.00;5013558;28;20057;-62
2022/01/29 11:43:09;;;;;;;4.85;2.17;;;;;;;10.44;35.59;95040.50;5010275;28;20483;-62
2022/01/29 11:45:44;;;;;;;5.13;1.73;;;;;;;9.00;38.36;95037.66;5014373;28;20831;-62
2022/01/29 11:48:22;;;;;;;5.30;1.90;;;;;;;10.19;37.08;95033.72;5012581;28;20050;-62
2022/01/29 11:50:50;;;;;;;5.32;2.05;;;;;;;10.75;35.61;95028.06;5009712;28;20067;-63